FDX43 YSSY-VHHX
Flight info
| Callsign | FDX43 |
|---|---|
| Flight time | N/A |
| Altitude | 30000 |
| Route | RIC H530 SURVO/N0421F320 R340 AMN A461 BONDA/N0417F340 A461 ZAM A583 SABNO |
| Aircraft | MD11/H-SDE1E2E3FGHIJ2J3J4J5M1P1P2P3RWXYZ/LB1D1 |
Departure
| Time | N/A |
|---|---|
| Airport | Sydney Kingsford Smith International Airport (YSSY) |
Arrival
| Time | 2026-04-30 07:36 |
|---|---|
| Airport | Hong Kong International Airport Kai Tak (VHHX) |
| Time | Latitude | Longitude | Altitude | Speed | Heading |
|---|---|---|---|---|---|
| 2026-04-30 07:13 | 22.71525 | 111.46524 | 27500 ft | 512 kts | 101° |
| 2026-04-30 07:13 | 22.70842 | 111.50312 | 27174 ft | 513 kts | 101° |
| 2026-04-30 07:13 | 22.70156 | 111.54074 | 26852 ft | 513 kts | 101° |
| 2026-04-30 07:14 | 22.69467 | 111.57864 | 26533 ft | 514 kts | 101° |
| 2026-04-30 07:14 | 22.68790 | 111.61633 | 26214 ft | 514 kts | 101° |
| 2026-04-30 07:14 | 22.68102 | 111.65450 | 25889 ft | 515 kts | 102° |
| 2026-04-30 07:14 | 22.67384 | 111.69232 | 25569 ft | 515 kts | 102° |
| 2026-04-30 07:15 | 22.66641 | 111.73028 | 25277 ft | 515 kts | 103° |
| 2026-04-30 07:15 | 22.65910 | 111.76775 | 24978 ft | 513 kts | 102° |
| 2026-04-30 07:15 | 22.65188 | 111.80557 | 24682 ft | 511 kts | 102° |
| 2026-04-30 07:15 | 22.64482 | 111.84316 | 24388 ft | 509 kts | 102° |
| 2026-04-30 07:16 | 22.63767 | 111.88071 | 24177 ft | 504 kts | 102° |
| 2026-04-30 07:16 | 22.63055 | 111.91766 | 24021 ft | 503 kts | 102° |
| 2026-04-30 07:16 | 22.62349 | 111.95465 | 23775 ft | 502 kts | 102° |
| 2026-04-30 07:16 | 22.61662 | 111.99116 | 23532 ft | 501 kts | 102° |
| 2026-04-30 07:17 | 22.60967 | 112.02801 | 23263 ft | 500 kts | 102° |
| 2026-04-30 07:17 | 22.60272 | 112.06448 | 22975 ft | 498 kts | 102° |
| 2026-04-30 07:17 | 22.58900 | 112.13779 | 22361 ft | 494 kts | 101° |
| 2026-04-30 07:18 | 22.58344 | 112.17406 | 21950 ft | 492 kts | 99° |
| 2026-04-30 07:18 | 22.57844 | 112.21034 | 21558 ft | 489 kts | 99° |
| 2026-04-30 07:18 | 22.57332 | 112.24650 | 21159 ft | 485 kts | 99° |
| 2026-04-30 07:18 | 22.56798 | 112.28236 | 20758 ft | 482 kts | 100° |
| 2026-04-30 07:19 | 22.56257 | 112.31778 | 20354 ft | 479 kts | 100° |
| 2026-04-30 07:19 | 22.55709 | 112.35340 | 19947 ft | 476 kts | 100° |
| 2026-04-30 07:19 | 22.55172 | 112.38845 | 19531 ft | 473 kts | 100° |
| 2026-04-30 07:19 | 22.54640 | 112.42332 | 19123 ft | 471 kts | 100° |
| 2026-04-30 07:20 | 22.54117 | 112.45804 | 18713 ft | 468 kts | 100° |
| 2026-04-30 07:20 | 22.53598 | 112.49269 | 18297 ft | 466 kts | 99° |
| 2026-04-30 07:20 | 22.53079 | 112.52721 | 17895 ft | 463 kts | 99° |
| 2026-04-30 07:20 | 22.52570 | 112.56113 | 17514 ft | 461 kts | 100° |
| 2026-04-30 07:21 | 22.52061 | 112.59510 | 17125 ft | 458 kts | 99° |
| 2026-04-30 07:21 | 22.51556 | 112.62897 | 16743 ft | 456 kts | 99° |
| 2026-04-30 07:21 | 22.51054 | 112.66271 | 16362 ft | 453 kts | 100° |
| 2026-04-30 07:21 | 22.50553 | 112.69628 | 15976 ft | 451 kts | 99° |
| 2026-04-30 07:22 | 22.49567 | 112.76269 | 15221 ft | 446 kts | 99° |
| 2026-04-30 07:22 | 22.49079 | 112.79560 | 14843 ft | 443 kts | 99° |
| 2026-04-30 07:22 | 22.48594 | 112.82835 | 14478 ft | 441 kts | 99° |
| 2026-04-30 07:23 | 22.48108 | 112.86111 | 14107 ft | 438 kts | 99° |
| 2026-04-30 07:23 | 22.47631 | 112.89342 | 13736 ft | 436 kts | 99° |
| 2026-04-30 07:23 | 22.47164 | 112.92526 | 13379 ft | 434 kts | 99° |
| 2026-04-30 07:23 | 22.46690 | 112.95743 | 13013 ft | 431 kts | 99° |
| 2026-04-30 07:24 | 22.46217 | 112.98948 | 12652 ft | 429 kts | 99° |
| 2026-04-30 07:24 | 22.45752 | 113.02097 | 12288 ft | 426 kts | 99° |
| 2026-04-30 07:24 | 22.45259 | 113.05253 | 11938 ft | 424 kts | 100° |
| 2026-04-30 07:24 | 22.44760 | 113.08360 | 11586 ft | 422 kts | 100° |
| 2026-04-30 07:25 | 22.44272 | 113.11402 | 11234 ft | 419 kts | 99° |
| 2026-04-30 07:25 | 22.43782 | 113.14493 | 10888 ft | 417 kts | 99° |
| 2026-04-30 07:25 | 22.43303 | 113.17549 | 10534 ft | 414 kts | 99° |
| 2026-04-30 07:25 | 22.42830 | 113.20586 | 10204 ft | 412 kts | 99° |
| 2026-04-30 07:26 | 22.42348 | 113.23656 | 9854 ft | 409 kts | 99° |
| 2026-04-30 07:26 | 22.41878 | 113.26638 | 9520 ft | 407 kts | 99° |
| 2026-04-30 07:26 | 22.41410 | 113.29626 | 9183 ft | 404 kts | 99° |
| 2026-04-30 07:26 | 22.40945 | 113.32614 | 8834 ft | 401 kts | 99° |
| 2026-04-30 07:27 | 22.40481 | 113.35600 | 8492 ft | 398 kts | 99° |
| 2026-04-30 07:27 | 22.40022 | 113.38538 | 8158 ft | 395 kts | 99° |
| 2026-04-30 07:27 | 22.39566 | 113.41457 | 7867 ft | 394 kts | 99° |
| 2026-04-30 07:27 | 22.39118 | 113.44340 | 7628 ft | 392 kts | 99° |
| 2026-04-30 07:28 | 22.38671 | 113.47226 | 7374 ft | 389 kts | 99° |
| 2026-04-30 07:28 | 22.38226 | 113.50100 | 7119 ft | 386 kts | 99° |
| 2026-04-30 07:28 | 22.37784 | 113.52949 | 6867 ft | 383 kts | 99° |
| 2026-04-30 07:28 | 22.37248 | 113.56407 | 6568 ft | 381 kts | 99° |
| 2026-04-30 07:29 | 22.35982 | 113.64590 | 5955 ft | 379 kts | 99° |
| 2026-04-30 07:29 | 22.34636 | 113.73428 | 5916 ft | 377 kts | 99° |
| 2026-04-30 07:29 | 22.32489 | 113.86896 | 5976 ft | 374 kts | 103° |
| 2026-04-30 07:29 | 22.31837 | 113.89642 | 5842 ft | 372 kts | 105° |
| 2026-04-30 07:30 | 22.32133 | 113.80239 | 5503 ft | 352 kts | 105° |
| 2026-04-30 07:30 | 22.31471 | 113.82764 | 5231 ft | 345 kts | 104° |
| 2026-04-30 07:30 | 22.31082 | 113.85265 | 4983 ft | 337 kts | 92° |
| 2026-04-30 07:31 | 22.31115 | 113.87779 | 4733 ft | 330 kts | 84° |
| 2026-04-30 07:31 | 22.31346 | 113.90219 | 4506 ft | 323 kts | 82° |
| 2026-04-30 07:31 | 22.31590 | 113.92587 | 4498 ft | 310 kts | 83° |
| 2026-04-30 07:31 | 22.31773 | 113.94836 | 4493 ft | 297 kts | 84° |
| 2026-04-30 07:32 | 22.31911 | 113.97029 | 4491 ft | 284 kts | 85° |
| 2026-04-30 07:32 | 22.32026 | 113.99087 | 4487 ft | 266 kts | 85° |
| 2026-04-30 07:32 | 22.32135 | 114.01051 | 4268 ft | 258 kts | 85° |
| 2026-04-30 07:32 | 22.32244 | 114.02902 | 4003 ft | 239 kts | 84° |
| 2026-04-30 07:33 | 22.32350 | 114.04632 | 3717 ft | 218 kts | 84° |
| 2026-04-30 07:33 | 22.32447 | 114.06172 | 3498 ft | 197 kts | 84° |
| 2026-04-30 07:33 | 22.32539 | 114.07601 | 3233 ft | 185 kts | 84° |
| 2026-04-30 07:33 | 22.32645 | 114.08976 | 2851 ft | 184 kts | 82° |
| 2026-04-30 07:34 | 22.32772 | 114.10320 | 2354 ft | 181 kts | 82° |
| 2026-04-30 07:34 | 22.32910 | 114.11642 | 1874 ft | 175 kts | 81° |
| 2026-04-30 07:34 | 22.33072 | 114.12943 | 1519 ft | 171 kts | 79° |
| 2026-04-30 07:34 | 22.33232 | 114.14195 | 1216 ft | 170 kts | 82° |
| 2026-04-30 07:35 | 22.33356 | 114.15463 | 931 ft | 169 kts | 81° |
| 2026-04-30 07:35 | 22.33445 | 114.16732 | 689 ft | 169 kts | 87° |
| 2026-04-30 07:35 | 22.33293 | 114.17968 | 472 ft | 167 kts | 106° |
| 2026-04-30 07:35 | 22.32706 | 114.19057 | 186 ft | 170 kts | 130° |
| 2026-04-30 07:36 | 22.31888 | 114.19971 | 40 ft | 166 kts | 131° |
| 2026-04-30 07:36 | 22.31191 | 114.20760 | 33 ft | 104 kts | 133° |
| 2026-04-30 07:36 | 22.30876 | 114.21114 | 33 ft | 30 kts | 133° |
| 2026-04-30 07:36 | 22.30831 | 114.21227 | 33 ft | 16 kts | 67° |
| 2026-04-30 07:37 | 22.30923 | 114.21220 | 33 ft | 17 kts | 312° |
| 2026-04-30 07:37 | 22.31009 | 114.21118 | 33 ft | 19 kts | 314° |
| 2026-04-30 07:37 | 22.31108 | 114.21008 | 33 ft | 21 kts | 313° |
| 2026-04-30 07:37 | 22.31217 | 114.20886 | 33 ft | 23 kts | 314° |
| 2026-04-30 07:38 | 22.31333 | 114.20751 | 33 ft | 25 kts | 313° |
| 2026-04-30 07:38 | 22.31459 | 114.20611 | 33 ft | 16 kts | 313° |
| 2026-04-30 07:38 | 22.31498 | 114.20589 | 33 ft | 6 kts | 8° |
| 2026-04-30 07:38 | 22.31542 | 114.20624 | 33 ft | 9 kts | 44° |
| 2026-04-30 07:39 | 22.31594 | 114.20679 | 33 ft | 11 kts | 44° |
| 2026-04-30 07:39 | 22.31642 | 114.20727 | 33 ft | 6 kts | 40° |
| 2026-04-30 07:39 | 22.31687 | 114.20729 | 33 ft | 8 kts | 329° |
| 2026-04-30 07:39 | 22.31736 | 114.20680 | 33 ft | 10 kts | 314° |
| 2026-04-30 07:40 | 22.31795 | 114.20615 | 32 ft | 13 kts | 314° |
| 2026-04-30 07:40 | 22.31839 | 114.20564 | 32 ft | 5 kts | 313° |
| 2026-04-30 07:40 | 22.31877 | 114.20561 | 33 ft | 7 kts | 31° |
| 2026-04-30 07:40 | 22.31914 | 114.20599 | 33 ft | 5 kts | 44° |
| 2026-04-30 07:41 | 22.31918 | 114.20602 | 33 ft | 0 kts | 44° |